createdAt,value
2022-12-16T06:08:11.432Z,-1.53
2022-12-16T06:10:56.911Z,-1.60
2022-12-16T06:13:42.384Z,-1.64
2022-12-16T06:16:27.951Z,-1.64
2022-12-16T06:19:13.481Z,-1.65
2022-12-16T06:21:59.030Z,-1.67
2022-12-16T06:24:44.449Z,-1.72
2022-12-16T06:27:30.566Z,-1.72
2022-12-16T06:30:15.909Z,-1.72
2022-12-16T06:33:03.834Z,-1.74
2022-12-16T06:35:51.122Z,-1.80
2022-12-16T06:38:36.473Z,-1.94
2022-12-16T06:41:41.867Z,-1.96
2022-12-16T06:44:27.391Z,-1.97
2022-12-16T06:47:13.178Z,-2.01
2022-12-16T06:49:58.653Z,-2.11
2022-12-16T06:52:45.394Z,-2.12
2022-12-16T06:55:30.900Z,-2.14
2022-12-16T06:58:17.440Z,-2.19
2022-12-16T07:01:04.040Z,-2.16
2022-12-16T07:03:51.217Z,-2.24
2022-12-16T07:06:36.859Z,-2.26
2022-12-16T07:09:25.993Z,-2.19
2022-12-16T07:12:11.455Z,-2.28
2022-12-16T07:14:56.989Z,-2.22
2022-12-16T07:17:42.578Z,-2.28
2022-12-16T07:20:28.524Z,-2.25
2022-12-16T07:23:19.988Z,-2.29
2022-12-16T07:26:08.477Z,-2.38
2022-12-16T07:29:22.496Z,-2.34
2022-12-16T07:32:13.902Z,-2.34
2022-12-16T07:34:59.424Z,-2.37
2022-12-16T07:37:46.499Z,-2.38
2022-12-16T07:40:43.721Z,-2.47
2022-12-16T07:43:33.062Z,-2.57
2022-12-16T07:46:20.362Z,-2.56
2022-12-16T07:50:02.474Z,-2.34
2022-12-16T07:52:57.314Z,-2.41
2022-12-16T07:55:58.006Z,-2.38
2022-12-16T08:01:51.283Z,-2.23
2022-12-16T08:04:43.184Z,-2.48
2022-12-16T08:07:31.833Z,-2.41
2022-12-16T08:10:38.133Z,-2.20
2022-12-16T08:13:41.453Z,-2.34
2022-12-16T08:20:12.773Z,-2.51
2022-12-16T08:22:59.807Z,-2.57
2022-12-16T08:25:49.233Z,-2.59
2022-12-16T08:32:33.171Z,-2.50
2022-12-16T08:35:38.580Z,-2.52
2022-12-16T08:39:42.971Z,-2.50
2022-12-16T08:43:10.848Z,-2.48
2022-12-16T08:46:09.265Z,-2.62
2022-12-16T08:50:02.031Z,-2.60
2022-12-16T08:53:37.522Z,-2.40
2022-12-16T08:57:07.204Z,-2.35
2022-12-16T09:00:15.850Z,-2.48
2022-12-16T09:03:19.996Z,-2.51
2022-12-16T09:06:13.224Z,-2.36
2022-12-16T09:08:58.890Z,-2.32
2022-12-16T09:11:45.409Z,-2.36
2022-12-16T09:14:31.113Z,-2.44
2022-12-16T09:17:16.850Z,-2.43
2022-12-16T09:20:02.228Z,-2.50
2022-12-16T09:22:49.286Z,-2.43
2022-12-16T09:25:46.068Z,-2.46
2022-12-16T09:28:31.874Z,-2.52
2022-12-16T09:31:20.396Z,-2.60
2022-12-16T09:34:06.022Z,-2.58
2022-12-16T09:36:53.202Z,-2.65
2022-12-16T09:39:42.327Z,-2.55
2022-12-16T09:42:42.179Z,-2.48
2022-12-16T09:45:28.945Z,-2.41
2022-12-16T09:48:32.799Z,-2.34
2022-12-16T09:51:23.329Z,-2.38
2022-12-16T09:54:13.073Z,-2.40
2022-12-16T09:56:59.887Z,-2.45
2022-12-16T09:59:56.194Z,-2.41
2022-12-16T10:02:44.357Z,-2.64
2022-12-16T10:05:36.217Z,-2.51
2022-12-16T10:09:18.012Z,-2.55
2022-12-16T10:12:17.846Z,-2.53
2022-12-16T10:15:15.578Z,-2.40
2022-12-16T10:18:04.618Z,-2.39
2022-12-16T10:21:17.876Z,-2.40
2022-12-16T10:24:18.697Z,-2.40
2022-12-16T10:27:28.198Z,-2.51
2022-12-16T10:30:14.388Z,-2.53
2022-12-16T10:33:07.374Z,-2.50
2022-12-16T10:39:13.039Z,-2.47
2022-12-16T10:42:04.288Z,-2.51
2022-12-16T10:45:14.604Z,-2.54
2022-12-16T10:48:01.500Z,-2.61
2022-12-16T10:50:47.211Z,-2.53
2022-12-16T10:53:37.773Z,-2.56
2022-12-16T10:56:53.261Z,-2.41
2022-12-16T10:59:46.636Z,-2.37
2022-12-16T11:02:39.326Z,-2.36
2022-12-16T11:05:52.654Z,-2.39
2022-12-16T11:09:06.096Z,-2.45
2022-12-16T11:11:55.691Z,-2.50
2022-12-16T11:15:27.752Z,-2.68
2022-12-16T11:18:26.047Z,-2.78
2022-12-16T11:21:43.973Z,-2.85
2022-12-16T11:24:57.065Z,-3.02
2022-12-16T11:27:47.545Z,-3.01
2022-12-16T11:30:38.250Z,-3.03
2022-12-16T11:33:46.359Z,-3.06
2022-12-16T11:36:38.073Z,-3.21
2022-12-16T11:39:32.461Z,-3.15
2022-12-16T11:42:20.504Z,-3.17
2022-12-16T11:45:20.187Z,-3.24
2022-12-16T11:48:15.920Z,-3.39
2022-12-16T11:51:19.246Z,-3.49
2022-12-16T11:59:05.822Z,-3.27
2022-12-16T12:02:19.819Z,-3.39
2022-12-16T12:05:11.013Z,-3.48
2022-12-16T12:08:27.657Z,-3.27
2022-12-16T12:11:40.125Z,-3.31
2022-12-16T12:14:35.612Z,-3.35
2022-12-16T12:17:43.004Z,-3.51
2022-12-16T12:20:51.728Z,-3.39
2022-12-16T12:24:11.592Z,-3.44
2022-12-16T12:27:09.811Z,-3.47
2022-12-16T12:30:18.423Z,-3.48
2022-12-16T12:33:31.764Z,-3.48
2022-12-16T12:36:41.908Z,-3.40
2022-12-16T12:39:53.143Z,-3.39
2022-12-16T12:43:03.729Z,-3.42
2022-12-16T12:46:10.486Z,-3.49
2022-12-16T12:49:23.978Z,-3.51
2022-12-16T12:52:45.538Z,-3.48
2022-12-16T12:55:47.467Z,-3.46
2022-12-16T12:58:37.515Z,-3.43
2022-12-16T13:01:28.148Z,-3.46
2022-12-16T13:04:13.870Z,-3.42
2022-12-16T13:07:14.191Z,-3.51
2022-12-16T13:10:02.791Z,-3.40
2022-12-16T13:12:53.277Z,-3.36
2022-12-16T13:16:00.287Z,-3.33
2022-12-16T13:18:51.347Z,-3.32
2022-12-16T13:21:57.491Z,-3.27
2022-12-16T13:25:05.118Z,-3.23
2022-12-16T13:28:11.535Z,-3.26
2022-12-16T13:31:00.210Z,-3.25
2022-12-16T13:33:50.339Z,-3.20
2022-12-16T13:36:39.269Z,-3.18
2022-12-16T13:39:49.335Z,-3.17
2022-12-16T13:43:12.848Z,-3.15
2022-12-16T13:46:02.289Z,-3.17
2022-12-16T13:49:11.542Z,-3.19
2022-12-16T13:51:58.210Z,-3.20
2022-12-16T13:54:49.937Z,-3.21
2022-12-16T13:57:39.903Z,-3.22
2022-12-16T14:00:39.754Z,-3.18
2022-12-16T14:03:38.131Z,-3.18
2022-12-16T14:06:31.434Z,-3.20
2022-12-16T14:09:22.687Z,-3.24
2022-12-16T14:12:27.324Z,-3.16
2022-12-16T14:15:30.523Z,-3.02
2022-12-16T14:18:38.034Z,-2.99
2022-12-16T14:21:32.392Z,-2.92
2022-12-16T14:24:29.763Z,-2.94
2022-12-16T14:27:20.129Z,-2.87
2022-12-16T14:30:08.972Z,-2.83
2022-12-16T14:32:54.709Z,-2.86
2022-12-16T14:36:11.751Z,-2.89
2022-12-16T14:39:08.766Z,-2.81
2022-12-16T14:41:56.485Z,-2.74
2022-12-16T14:44:44.277Z,-2.84
2022-12-16T14:47:41.324Z,-2.63
2022-12-16T14:50:59.584Z,-2.65
2022-12-16T14:53:59.330Z,-2.69
2022-12-16T14:56:59.329Z,-2.69
2022-12-16T14:59:48.218Z,-2.66
2022-12-16T15:02:51.621Z,-2.63
2022-12-16T15:05:46.069Z,-2.62
2022-12-16T15:08:32.160Z,-2.67
2022-12-16T15:11:20.074Z,-2.65
2022-12-16T15:14:19.689Z,-2.67
2022-12-16T15:17:08.138Z,-2.62
2022-12-16T15:20:14.509Z,-2.68
2022-12-16T15:23:08.140Z,-2.70
2022-12-16T15:26:00.588Z,-2.70
2022-12-16T15:29:02.927Z,-2.74
2022-12-16T15:32:03.169Z,-2.84
2022-12-16T15:35:09.650Z,-2.94
2022-12-16T15:38:04.621Z,-2.87
2022-12-16T15:40:59.056Z,-3.02
2022-12-16T15:43:57.366Z,-2.90
2022-12-16T15:46:48.204Z,-3.11
2022-12-16T15:49:37.014Z,-3.00
2022-12-16T15:52:56.338Z,-3.00
2022-12-16T15:55:50.813Z,-3.09
2022-12-16T15:59:04.397Z,-3.08
2022-12-16T16:02:04.439Z,-3.19
2022-12-16T16:04:50.670Z,-3.07
2022-12-16T16:07:45.530Z,-3.05
2022-12-16T16:10:44.415Z,-3.09
2022-12-16T16:13:31.872Z,-2.99
2022-12-16T16:16:20.885Z,-3.06
2022-12-16T16:19:07.804Z,-3.09
2022-12-16T16:21:53.524Z,-3.05
2022-12-16T16:24:39.238Z,-3.15
2022-12-16T16:27:34.314Z,-3.06
2022-12-16T16:30:20.614Z,-3.07
2022-12-16T16:33:27.841Z,-3.05
2022-12-16T16:36:19.424Z,-2.93
2022-12-16T16:39:06.602Z,-2.94
2022-12-16T16:41:56.572Z,-2.89
2022-12-16T16:44:42.485Z,-2.92
2022-12-16T16:47:47.038Z,-2.93
2022-12-16T16:50:42.483Z,-2.93
2022-12-16T16:53:42.799Z,-3.09
2022-12-16T16:56:33.161Z,-3.08
2022-12-16T16:59:45.187Z,-3.07
2022-12-16T17:02:47.518Z,-3.22
2022-12-16T17:05:33.979Z,-3.14
2022-12-16T17:08:21.020Z,-3.11
2022-12-16T17:14:26.643Z,-3.10
2022-12-16T17:17:19.379Z,-2.98
2022-12-16T17:20:06.912Z,-3.17
2022-12-16T17:22:54.538Z,-3.25
2022-12-16T17:25:44.635Z,-3.18
2022-12-16T17:28:34.287Z,-3.27
2022-12-16T17:34:44.144Z,-3.03
2022-12-16T17:37:33.246Z,-2.93
2022-12-16T17:40:20.704Z,-3.14
2022-12-16T17:43:11.752Z,-2.94
2022-12-16T17:46:00.849Z,-3.14
2022-12-16T17:48:46.442Z,-3.14
2022-12-16T17:51:36.489Z,-2.98
2022-12-16T17:54:29.038Z,-2.99
2022-12-16T17:57:15.877Z,-3.14
2022-12-16T18:00:01.734Z,-2.98
2022-12-16T18:02:58.525Z,-2.91
2022-12-16T18:05:45.005Z,-2.91
2022-12-16T18:08:31.598Z,-2.95
2022-12-16T18:11:17.924Z,-2.94
2022-12-16T18:14:09.242Z,-2.92
2022-12-16T18:16:58.647Z,-3.05
2022-12-16T18:19:44.471Z,-3.21
2022-12-16T18:22:30.268Z,-3.03
2022-12-16T18:25:17.133Z,-3.06
2022-12-16T18:28:02.819Z,-3.00
2022-12-16T18:30:49.216Z,-2.95
2022-12-16T18:33:34.888Z,-2.94
2022-12-16T18:36:28.347Z,-2.92
2022-12-16T18:39:13.966Z,-2.96
2022-12-16T18:42:02.494Z,-2.94
2022-12-16T18:44:49.384Z,-2.95
2022-12-16T18:47:35.766Z,-2.92
2022-12-16T18:50:27.833Z,-2.94
2022-12-16T18:53:16.591Z,-2.90
2022-12-16T18:56:02.003Z,-2.88
2022-12-16T18:58:51.826Z,-2.88
2022-12-16T19:01:38.338Z,-2.84
2022-12-16T19:04:26.914Z,-2.88
2022-12-16T19:07:15.684Z,-2.85
2022-12-16T19:10:01.238Z,-2.86
2022-12-16T19:12:53.225Z,-2.83
2022-12-16T19:15:41.456Z,-2.92
2022-12-16T19:18:27.851Z,-2.90
2022-12-16T19:21:14.801Z,-2.87
2022-12-16T19:24:04.977Z,-2.78
2022-12-16T19:26:50.683Z,-2.81
2022-12-16T19:29:37.531Z,-2.78
2022-12-16T19:32:32.586Z,-2.75
2022-12-16T19:35:44.143Z,-2.73
2022-12-16T19:38:33.536Z,-2.81
2022-12-16T19:41:19.106Z,-2.77
2022-12-16T19:44:06.443Z,-2.79
2022-12-16T19:49:59.336Z,-2.70
2022-12-16T19:52:47.860Z,-2.74
2022-12-16T19:55:34.628Z,-2.71
2022-12-16T19:58:20.577Z,-2.80
2022-12-16T20:01:06.030Z,-2.78
2022-12-16T20:03:56.742Z,-2.67
2022-12-16T20:06:42.913Z,-2.73
2022-12-16T20:09:28.716Z,-2.70
2022-12-16T20:12:14.249Z,-2.70
2022-12-16T20:15:00.159Z,-2.67
2022-12-16T20:17:45.707Z,-2.67
2022-12-16T20:20:32.080Z,-2.68
2022-12-16T20:23:19.636Z,-2.61
2022-12-16T20:26:16.243Z,-2.61
2022-12-16T20:29:02.141Z,-2.60
2022-12-16T20:31:48.105Z,-2.52
2022-12-16T20:34:33.813Z,-2.50
2022-12-16T20:37:19.728Z,-2.63
2022-12-16T20:40:05.291Z,-2.46
2022-12-16T20:42:51.066Z,-2.49
2022-12-16T20:45:40.785Z,-2.60
2022-12-16T20:48:26.561Z,-2.44
2022-12-16T20:51:22.571Z,-2.46
2022-12-16T20:54:16.358Z,-2.45
2022-12-16T20:57:01.783Z,-2.50
2022-12-16T20:59:47.196Z,-2.51
2022-12-16T21:02:35.072Z,-2.48
2022-12-16T21:05:21.613Z,-2.48
2022-12-16T21:08:17.942Z,-2.54
2022-12-16T21:11:03.589Z,-2.47
2022-12-16T21:13:49.618Z,-2.51
2022-12-16T21:16:35.307Z,-2.48
2022-12-16T21:19:20.773Z,-2.47
2022-12-16T21:22:06.522Z,-2.52
2022-12-16T21:24:52.102Z,-2.50
2022-12-16T21:27:37.623Z,-2.53
2022-12-16T21:30:23.550Z,-2.66
2022-12-16T21:33:09.517Z,-2.58
2022-12-16T21:36:01.482Z,-2.56
2022-12-16T21:38:47.239Z,-2.59
2022-12-16T21:41:32.704Z,-2.57
2022-12-16T21:44:18.276Z,-2.58
2022-12-16T21:47:03.840Z,-2.56
2022-12-16T21:49:49.250Z,-2.66
2022-12-16T21:52:36.986Z,-2.67
2022-12-16T21:55:22.641Z,-2.67
2022-12-16T21:58:08.354Z,-2.61
2022-12-16T22:01:00.466Z,-2.64
2022-12-16T22:04:01.989Z,-2.58
2022-12-16T22:06:49.032Z,-2.68
2022-12-16T22:09:37.525Z,-2.68
2022-12-16T22:12:35.463Z,-2.71
2022-12-16T22:15:30.444Z,-2.74
2022-12-16T22:18:16.562Z,-2.75
2022-12-16T22:21:04.412Z,-2.75
2022-12-16T22:23:53.252Z,-2.80
2022-12-16T22:26:41.590Z,-2.80
2022-12-16T22:29:27.014Z,-2.79
2022-12-16T22:32:12.921Z,-2.83
2022-12-16T22:34:58.571Z,-2.78
2022-12-16T22:36:20.284Z,-2.78
2022-12-16T22:37:44.301Z,-2.70
2022-12-16T22:40:31.074Z,-2.75
2022-12-16T22:43:16.726Z,-2.70
2022-12-16T22:46:02.466Z,-2.69
2022-12-16T22:48:48.212Z,-2.69
2022-12-16T22:51:34.566Z,-2.68
2022-12-16T22:54:20.370Z,-2.66
2022-12-16T22:57:06.573Z,-2.63
2022-12-16T22:59:52.269Z,-2.67
2022-12-16T23:02:38.962Z,-2.58
2022-12-16T23:05:28.048Z,-2.58
2022-12-16T23:08:14.248Z,-2.58
2022-12-16T23:11:27.238Z,-2.57
2022-12-16T23:14:15.647Z,-2.57
2022-12-16T23:17:01.290Z,-2.50
2022-12-16T23:19:46.749Z,-2.52
2022-12-16T23:22:32.393Z,-2.42
2022-12-16T23:25:17.809Z,-2.45
2022-12-16T23:28:03.595Z,-2.39
2022-12-16T23:30:49.139Z,-2.37
2022-12-16T23:33:35.032Z,-2.41
2022-12-16T23:36:22.562Z,-2.43
2022-12-16T23:39:08.079Z,-2.44
2022-12-16T23:41:53.476Z,-2.44
2022-12-16T23:44:49.759Z,-2.61
2022-12-16T23:47:39.528Z,-2.49
2022-12-16T23:50:25.841Z,-2.53
2022-12-16T23:53:26.624Z,-2.55
2022-12-16T23:56:20.162Z,-2.54
2022-12-16T23:59:07.386Z,-2.57
